Time;durP1;ratioP1;P1;durP2;ratioP2;P2;SDS_P1;SDS_P2;PMS_P1;PMS_P2;Temp;Humidity;BMP_temperature;BMP_pressure;BME280_temperature;BME280_humidity;BME280_pressure;Samples;Min_cycle;Max_cycle;Signal;HPM_P1;HPM_P2
2020/12/05 00:02:24;;;;;;;29.63;18.52;;;;;;;6.35;92.59;97207.50;1767104;81;20948;-75
2020/12/05 00:04:52;;;;;;;29.35;19.73;;;;;;;6.36;92.50;97206.57;1767082;80;21011;-76
2020/12/05 00:07:19;;;;;;;29.37;19.25;;;;;;;6.37;92.37;97209.08;1756494;81;20949;-75
2020/12/05 00:09:46;;;;;;;25.70;17.50;;;;;;;6.39;92.26;97199.45;1767026;81;21245;-75
2020/12/05 00:12:13;;;;;;;28.75;16.77;;;;;;;6.40;92.21;97192.06;1756464;81;20945;-76
2020/12/05 00:14:42;;;;;;;26.42;17.35;;;;;;;6.40;92.16;97199.81;1764186;81;21142;-76
2020/12/05 00:17:11;;;;;;;28.83;18.92;;;;;;;6.42;92.09;97205.69;1767049;81;20881;-76
2020/12/05 00:19:38;;;;;;;29.23;18.07;;;;;;;6.44;91.92;97207.70;1756501;81;20932;-76
2020/12/05 00:22:05;;;;;;;30.27;18.02;;;;;;;6.45;91.81;97205.50;1767054;81;21139;-76
2020/12/05 00:24:32;;;;;;;27.75;17.52;;;;;;;6.46;91.66;97207.62;1756428;81;21115;-76
2020/12/05 00:27:00;;;;;;;28.87;17.62;;;;;;;6.47;91.55;97201.05;1767020;80;21177;-76
2020/12/05 00:29:27;;;;;;;26.70;16.82;;;;;;;6.50;91.51;97192.72;1756508;81;20933;-76
2020/12/05 00:31:55;;;;;;;27.30;16.30;;;;;;;6.52;91.41;97202.01;1767046;81;21035;-75
2020/12/05 00:34:22;;;;;;;29.32;17.75;;;;;;;6.55;91.24;97204.87;1756436;81;21183;-77
2020/12/05 00:36:52;;;;;;;29.85;19.07;;;;;;;6.56;91.19;97200.88;1767066;81;20944;-77
2020/12/05 00:39:19;;;;;;;28.07;18.65;;;;;;;6.56;91.07;97199.59;1756498;81;20921;-76
2020/12/05 00:41:46;;;;;;;25.80;17.00;;;;;;;6.57;91.05;97177.98;1774665;80;21350;-75
2020/12/05 00:44:13;;;;;;;28.25;17.73;;;;;;;6.57;91.13;97195.25;1775452;80;21007;-75
2020/12/05 00:46:41;;;;;;;30.23;16.67;;;;;;;6.56;91.19;97184.55;1775446;80;21621;-74
2020/12/05 00:49:08;;;;;;;27.37;16.60;;;;;;;6.56;91.02;97178.09;1775399;80;21007;-75
2020/12/05 00:51:35;;;;;;;27.37;17.87;;;;;;;6.57;90.93;97170.23;1775478;80;20916;-76
2020/12/05 00:54:03;;;;;;;30.32;18.73;;;;;;;6.59;90.83;97178.70;1775434;80;21412;-75
2020/12/05 00:56:30;;;;;;;32.45;19.35;;;;;;;6.61;90.77;97180.70;1775491;80;21059;-76
2020/12/05 00:58:58;;;;;;;28.70;18.67;;;;;;;6.61;90.76;97188.92;1775447;80;21192;-76
2020/12/05 01:01:25;;;;;;;28.17;17.45;;;;;;;6.64;90.79;97197.77;1775310;80;21070;-76
2020/12/05 01:03:52;;;;;;;28.87;16.62;;;;;;;6.63;90.73;97178.03;1775480;80;20932;-76
2020/12/05 01:06:20;;;;;;;25.57;16.35;;;;;;;6.65;90.71;97192.95;1775410;80;20916;-76
2020/12/05 01:08:48;;;;;;;25.85;16.52;;;;;;;6.66;90.66;97188.14;1775441;80;21058;-76
2020/12/05 01:11:17;;;;;;;27.67;18.17;;;;;;;6.68;90.58;97191.44;1775417;80;21202;-76
2020/12/05 01:13:46;;;;;;;28.57;18.02;;;;;;;6.69;90.53;97186.63;1775379;80;21130;-76
2020/12/05 01:16:18;;;;;;;27.40;18.23;;;;;;;6.69;90.40;97197.79;1775408;80;20983;-76
2020/12/05 01:18:45;;;;;;;27.75;18.15;;;;;;;6.69;90.37;97196.50;1775481;80;21307;-77
2020/12/05 01:21:14;;;;;;;25.70;17.02;;;;;;;6.68;90.27;97183.22;1775437;80;20979;-77
2020/12/05 01:23:41;;;;;;;25.70;17.00;;;;;;;6.69;90.31;97177.58;1775424;80;21191;-76
2020/12/05 01:26:08;;;;;;;31.60;19.10;;;;;;;6.71;90.31;97193.83;1775452;80;21083;-77
2020/12/05 01:28:36;;;;;;;29.02;18.73;;;;;;;6.71;90.23;97195.95;1775420;80;21444;-77
2020/12/05 01:31:04;;;;;;;28.42;17.10;;;;;;;6.71;90.16;97188.20;1775420;80;20932;-77
2020/12/05 01:33:31;;;;;;;27.10;17.55;;;;;;;6.71;90.17;97204.98;1775455;80;21034;-76
2020/12/05 01:35:59;;;;;;;28.85;17.57;;;;;;;6.72;90.11;97212.27;1775518;80;22126;-77
2020/12/05 01:38:27;;;;;;;26.95;18.00;;;;;;;6.72;90.01;97195.48;1775301;80;20940;-77
2020/12/05 01:40:57;;;;;;;25.00;16.02;;;;;;;6.73;90.01;97208.75;1767384;80;21307;-76
2020/12/05 01:43:29;;;;;;;32.00;18.62;;;;;;;6.73;89.91;97213.92;1766902;80;21012;-77
2020/12/05 01:45:59;;;;;;;30.60;19.35;;;;;;;6.73;89.84;97199.23;1767144;80;21055;-77
2020/12/05 01:48:26;;;;;;;25.97;18.25;;;;;;;6.73;89.97;97195.83;1756466;81;21346;-77
2020/12/05 01:50:54;;;;;;;31.90;18.87;;;;;;;6.70;90.06;97202.48;1756406;81;21409;-77
2020/12/05 01:53:21;;;;;;;26.17;16.57;;;;;;;6.69;90.20;97198.26;1766916;80;20967;-77
2020/12/05 01:55:49;;;;;;;29.42;17.85;;;;;;;6.67;90.35;97204.00;1756422;81;21405;-77
2020/12/05 01:58:17;;;;;;;28.67;17.15;;;;;;;6.64;90.68;97210.69;1767007;81;20948;-77
2020/12/05 02:00:44;;;;;;;30.57;19.20;;;;;;;6.62;91.00;97204.78;1766955;81;21254;-77
2020/12/05 02:03:16;;;;;;;27.48;17.85;;;;;;;6.60;91.34;97202.77;1756379;81;21029;-77
2020/12/05 02:06:08;;;;;;;28.45;18.73;;;;;;;6.57;91.54;97208.98;1756433;81;20941;-77
2020/12/05 02:08:44;;;;;;;31.48;19.45;;;;;;;6.54;91.95;97196.30;1767166;81;21057;-76
2020/12/05 02:11:11;;;;;;;32.40;20.62;;;;;;;6.47;92.27;97217.84;1766683;81;20948;-76
2020/12/05 02:13:46;;;;;;;28.90;18.20;;;;;;;6.42;92.67;97205.69;1756445;81;20937;-77
2020/12/05 02:16:15;;;;;;;32.08;19.65;;;;;;;6.40;92.95;97220.48;1756370;81;21012;-76
2020/12/05 02:18:45;;;;;;;30.52;18.87;;;;;;;6.36;93.19;97220.31;1766898;80;21067;-77
2020/12/05 02:21:12;;;;;;;29.90;18.92;;;;;;;6.34;93.30;97213.14;1756490;81;20992;-77
2020/12/05 02:23:39;;;;;;;29.90;19.40;;;;;;;6.32;93.50;97214.18;1735485;81;20928;-77
2020/12/05 02:26:09;;;;;;;30.10;19.55;;;;;;;6.31;93.54;97222.87;1711556;81;22087;-77
2020/12/05 02:28:37;;;;;;;30.02;19.48;;;;;;;6.29;93.70;97222.97;1735792;81;21422;-73
2020/12/05 02:31:04;;;;;;;34.88;20.25;;;;;;;6.29;93.79;97237.18;1735453;81;21487;-74
2020/12/05 02:33:31;;;;;;;31.55;20.02;;;;;;;6.26;93.92;97241.23;1756425;81;21461;-73
2020/12/05 02:35:58;;;;;;;30.02;18.67;;;;;;;6.26;94.02;97228.80;1756456;81;20945;-73
2020/12/05 02:38:31;;;;;;;33.88;21.23;;;;;;;6.24;94.08;97222.91;1766873;81;21803;-73
2020/12/05 02:40:59;;;;;;;34.43;20.60;;;;;;;6.24;94.30;97221.63;1754125;81;20933;-73
2020/12/05 02:43:26;;;;;;;33.30;19.77;;;;;;;6.19;94.58;97224.50;1748638;80;20945;-73
2020/12/05 02:45:54;;;;;;;34.15;20.30;;;;;;;6.15;94.83;97204.99;1748619;82;20893;-73
2020/12/05 02:48:22;;;;;;;31.80;20.17;;;;;;;6.11;95.18;97231.93;1748692;82;20933;-73
2020/12/05 02:50:49;;;;;;;34.53;20.30;;;;;;;6.07;95.49;97237.78;1748653;82;21805;-73
2020/12/05 02:53:16;;;;;;;33.58;21.57;;;;;;;6.05;95.80;97223.33;1748568;81;21087;-73
2020/12/05 02:55:43;;;;;;;30.27;18.25;;;;;;;6.03;96.06;97227.28;1748675;82;20993;-73
2020/12/05 02:58:11;;;;;;;34.75;19.37;;;;;;;6.01;96.45;97230.90;1748574;82;21168;-73
2020/12/05 03:00:38;;;;;;;32.10;20.10;;;;;;;5.98;96.72;97229.82;1748770;82;20942;-73
2020/12/05 03:03:05;;;;;;;37.33;21.27;;;;;;;5.96;96.96;97238.11;1748608;82;21262;-73
2020/12/05 03:05:32;;;;;;;35.30;21.82;;;;;;;5.94;97.21;97230.94;1748696;82;21137;-73
2020/12/05 03:08:00;;;;;;;30.62;18.45;;;;;;;5.91;97.64;97240.55;1748672;82;20937;-73
2020/12/05 03:10:27;;;;;;;36.30;21.35;;;;;;;5.86;97.94;97243.84;1748681;82;21063;-73
2020/12/05 03:12:54;;;;;;;34.88;20.35;;;;;;;5.83;98.27;97236.31;1748683;80;20980;-73
2020/12/05 03:15:21;;;;;;;33.23;20.23;;;;;;;5.81;98.56;97244.63;1748668;82;21176;-73
2020/12/05 03:17:48;;;;;;;34.50;19.30;;;;;;;5.78;98.94;97235.78;1748567;81;21307;-73
2020/12/05 03:20:15;;;;;;;33.10;20.57;;;;;;;5.77;99.23;97228.97;1748649;82;20925;-73
2020/12/05 03:22:42;;;;;;;34.43;19.75;;;;;;;5.75;99.40;97235.98;1748635;81;20992;-73
2020/12/05 03:25:10;;;;;;;37.00;22.60;;;;;;;5.72;99.78;97232.80;1748571;81;21450;-73
2020/12/05 03:27:37;;;;;;;32.60;19.23;;;;;;;5.69;99.95;97226.06;1748672;82;21794;-72
2020/12/05 03:30:05;;;;;;;33.08;19.25;;;;;;;5.67;100.00;97233.08;1748661;82;21024;-72
2020/12/05 03:32:32;;;;;;;33.80;20.05;;;;;;;5.63;100.00;97236.80;1748834;82;21012;-74
2020/12/05 03:34:59;;;;;;;31.57;19.37;;;;;;;5.62;100.00;97233.36;1748855;81;20925;-73
2020/12/05 03:37:27;;;;;;;34.65;20.82;;;;;;;5.60;100.00;97232.64;1748784;82;20925;-73
2020/12/05 03:39:55;;;;;;;32.05;21.07;;;;;;;5.59;100.00;97234.05;1748834;80;21763;-73
2020/12/05 03:42:22;;;;;;;33.95;17.95;;;;;;;5.59;100.00;97232.75;1748686;81;21406;-73
2020/12/05 03:44:49;;;;;;;36.28;19.27;;;;;;;5.60;100.00;97244.25;1748702;80;21287;-73
2020/12/05 03:47:16;;;;;;;31.62;19.07;;;;;;;5.61;100.00;97236.88;1748799;81;21451;-73
2020/12/05 03:49:45;;;;;;;30.25;18.90;;;;;;;5.61;100.00;97236.05;1748766;81;20968;-73
2020/12/05 03:52:13;;;;;;;33.88;20.82;;;;;;;5.63;100.00;97239.38;1748751;81;21127;-73
2020/12/05 03:54:40;;;;;;;34.27;19.67;;;;;;;5.63;100.00;97233.76;1748730;82;21115;-73
2020/12/05 03:57:07;;;;;;;34.35;19.35;;;;;;;5.61;100.00;97236.88;1748774;82;21319;-73
2020/12/05 03:59:34;;;;;;;35.25;22.80;;;;;;;5.61;100.00;97219.28;1748753;82;20989;-73
2020/12/05 04:02:01;;;;;;;35.28;21.25;;;;;;;5.60;100.00;97222.33;1748813;81;20996;-73
2020/12/05 04:04:29;;;;;;;32.73;20.02;;;;;;;5.61;100.00;97227.02;1748710;81;21199;-73
2020/12/05 04:06:57;;;;;;;32.33;19.60;;;;;;;5.60;100.00;97213.77;1748694;81;21350;-73
2020/12/05 04:09:25;;;;;;;30.35;18.32;;;;;;;5.59;100.00;97221.14;1748766;81;20917;-73
2020/12/05 04:11:52;;;;;;;32.28;19.62;;;;;;;5.60;100.00;97236.98;1748737;80;21390;-73
2020/12/05 04:14:19;;;;;;;33.18;20.30;;;;;;;5.62;100.00;97255.76;1748790;82;21044;-73
2020/12/05 04:16:46;;;;;;;29.95;18.57;;;;;;;5.63;100.00;97267.30;1748841;82;21976;-73
2020/12/05 04:19:13;;;;;;;31.52;18.85;;;;;;;5.63;100.00;97268.59;1748762;81;21008;-73
2020/12/05 04:21:40;;;;;;;34.67;19.57;;;;;;;5.64;100.00;97278.44;1748718;82;21130;-73
2020/12/05 04:24:07;;;;;;;36.88;19.82;;;;;;;5.65;100.00;97250.42;1748757;82;20925;-73
2020/12/05 04:26:35;;;;;;;35.65;22.67;;;;;;;5.66;100.00;97250.78;1748835;80;21382;-73
2020/12/05 04:29:03;;;;;;;33.28;19.65;;;;;;;5.68;100.00;97261.00;1748748;80;21715;-73
2020/12/05 04:31:30;;;;;;;43.45;27.58;;;;;;;5.69;100.00;97253.62;1748732;82;20925;-73
2020/12/05 04:33:57;;;;;;;33.23;21.90;;;;;;;5.69;100.00;97259.60;1748684;80;20910;-73
2020/12/05 04:36:25;;;;;;;34.15;21.50;;;;;;;5.72;100.00;97266.34;1748834;82;20974;-73
2020/12/05 04:38:52;;;;;;;37.70;25.02;;;;;;;5.74;100.00;97278.20;1748772;81;21000;-73
2020/12/05 04:41:19;;;;;;;34.48;22.32;;;;;;;5.76;100.00;97275.52;1750253;81;21772;-73
2020/12/05 04:43:47;;;;;;;34.63;22.13;;;;;;;5.79;100.00;97288.22;1766948;81;20928;-73
2020/12/05 04:46:16;;;;;;;34.10;22.70;;;;;;;5.81;100.00;97282.52;1756501;81;21011;-73
2020/12/05 04:48:43;;;;;;;37.45;21.95;;;;;;;5.82;100.00;97273.84;1767022;81;21016;-73
2020/12/05 04:51:16;;;;;;;30.50;19.80;;;;;;;5.83;100.00;97295.67;1756516;81;21072;-73
2020/12/05 04:53:45;;;;;;;35.25;21.65;;;;;;;5.86;100.00;97294.17;1766871;81;21405;-73
2020/12/05 04:56:16;;;;;;;33.55;19.77;;;;;;;5.87;100.00;97287.25;1737620;81;20995;-73
2020/12/05 04:58:47;;;;;;;31.35;20.90;;;;;;;5.90;100.00;97296.97;1767005;81;21100;-73
2020/12/05 05:01:19;;;;;;;31.52;20.32;;;;;;;5.90;100.00;97282.77;1756459;81;21422;-73
2020/12/05 05:03:46;;;;;;;35.15;19.25;;;;;;;5.91;100.00;97288.30;1756537;81;21138;-73
2020/12/05 05:06:19;;;;;;;33.38;20.62;;;;;;;5.88;100.00;97274.28;1767088;81;21338;-73
2020/12/05 05:08:47;;;;;;;35.10;19.65;;;;;;;5.86;100.00;97290.30;1766933;81;20905;-73
2020/12/05 05:11:16;;;;;;;37.00;19.77;;;;;;;5.84;100.00;97280.55;1756543;81;20968;-76
2020/12/05 05:14:01;;;;;;;33.58;20.60;;;;;;;5.83;100.00;97308.58;1766929;81;20999;-76
2020/12/05 05:16:28;;;;;;;29.23;18.07;;;;;;;5.81;100.00;97315.59;1756622;81;20921;-75
2020/12/05 05:18:57;;;;;;;31.93;20.88;;;;;;;5.80;100.00;97319.11;1756543;81;21961;-76
2020/12/05 05:21:39;;;;;;;33.88;19.85;;;;;;;5.78;100.00;97317.06;1735411;81;20996;-75
2020/12/05 05:24:17;;;;;;;31.17;19.45;;;;;;;5.78;100.00;97309.33;1756396;81;21027;-75
2020/12/05 05:27:06;;;;;;;32.48;19.05;;;;;;;5.78;100.00;97311.91;1756430;81;20984;-77
2020/12/05 05:29:42;;;;;;;36.50;21.10;;;;;;;5.75;100.00;97296.63;1767011;80;21381;-75
2020/12/05 05:32:12;;;;;;;32.65;21.25;;;;;;;5.73;100.00;97307.52;1766398;80;21413;-75
2020/12/05 05:34:37;;;;;;;31.65;20.08;;;;;;;5.72;100.00;97303.75;1766811;81;21134;-75
2020/12/05 05:37:16;;;;;;;31.07;18.87;;;;;;;5.71;100.00;97303.36;1766964;81;21394;-75
2020/12/05 05:39:53;;;;;;;30.65;19.42;;;;;;;5.71;100.00;97314.54;1756402;81;21008;-75
2020/12/05 05:42:33;;;;;;;33.20;19.90;;;;;;;5.72;100.00;97323.11;1765801;80;20923;-76
2020/12/05 05:45:21;;;;;;;30.48;19.17;;;;;;;5.72;100.00;97325.69;1775228;79;22309;-75
2020/12/05 05:47:50;;;;;;;32.63;19.73;;;;;;;5.72;100.00;97307.62;1775397;80;21370;-74
2020/12/05 05:50:30;;;;;;;33.70;19.42;;;;;;;5.72;100.00;97334.25;1775427;80;20926;-77
2020/12/05 05:53:02;;;;;;;31.23;20.08;;;;;;;5.70;100.00;97324.47;1775342;80;21327;-76
2020/12/05 05:55:46;;;;;;;28.90;18.00;;;;;;;5.70;100.00;97328.34;1775543;80;20992;-76
2020/12/05 05:58:16;;;;;;;33.38;18.40;;;;;;;5.68;100.00;97329.38;1775382;80;21198;-76
2020/12/05 06:00:50;;;;;;;32.05;18.95;;;;;;;5.66;100.00;97326.89;1775420;80;20991;-76
2020/12/05 06:03:26;;;;;;;30.08;17.87;;;;;;;5.66;100.00;97337.68;1775404;80;20916;-74
2020/12/05 06:05:58;;;;;;;35.78;21.93;;;;;;;5.62;100.00;97355.91;1720541;83;21085;-73
2020/12/05 06:08:29;;;;;;;42.58;24.20;;;;;;;5.62;100.00;97337.03;1691670;83;21457;-72
2020/12/05 06:11:00;;;;;;;34.27;21.40;;;;;;;5.63;100.00;97334.84;1720662;83;21213;-72
2020/12/05 06:13:29;;;;;;;33.40;20.95;;;;;;;5.63;100.00;97330.97;1720568;83;21332;-75
2020/12/05 06:15:58;;;;;;;33.55;22.00;;;;;;;5.66;100.00;97344.12;1720616;83;20907;-76
2020/12/05 06:18:25;;;;;;;37.20;22.32;;;;;;;5.67;100.00;97336.28;1720736;83;21006;-75
2020/12/05 06:20:53;;;;;;;36.50;22.45;;;;;;;5.70;100.00;97346.86;1720082;82;21155;-75
2020/12/05 06:23:45;;;;;;;38.80;24.27;;;;;;;5.69;100.00;97341.34;1719404;82;22006;-75
2020/12/05 06:26:29;;;;;;;37.05;26.48;;;;;;;5.69;100.00;97352.95;1699264;83;21172;-75
2020/12/05 06:28:57;;;;;;;32.42;22.30;;;;;;;5.70;100.00;97344.28;1701698;82;21554;-75
2020/12/05 06:31:44;;;;;;;32.33;23.20;;;;;;;5.69;100.00;97348.62;1719554;83;21100;-77
2020/12/05 06:34:41;;;;;;;36.73;19.85;;;;;;;5.70;100.00;97354.60;1719692;83;21141;-75
2020/12/05 06:37:11;;;;;;;31.90;19.10;;;;;;;5.73;100.00;97368.16;1720475;83;21332;-75
2020/12/05 06:39:38;;;;;;;33.98;20.50;;;;;;;5.75;100.00;97369.34;1720648;83;21080;-76
2020/12/05 06:42:18;;;;;;;34.85;20.15;;;;;;;5.76;100.00;97369.24;1717945;82;20932;-75
2020/12/05 06:44:46;;;;;;;45.75;23.27;;;;;;;5.78;100.00;97376.42;1709916;84;21149;-76
2020/12/05 06:47:22;;;;;;;34.85;19.98;;;;;;;5.80;100.00;97369.89;1709899;84;21089;-76
2020/12/05 06:49:52;;;;;;;34.85;20.50;;;;;;;5.81;100.00;97373.66;1709457;84;21367;-76
2020/12/05 06:52:30;;;;;;;33.98;19.80;;;;;;;5.81;100.00;97366.38;1709256;82;21488;-76
2020/12/05 06:55:12;;;;;;;32.73;18.98;;;;;;;5.82;100.00;97367.58;1709332;84;21157;-76
2020/12/05 06:57:42;;;;;;;34.38;19.82;;;;;;;5.82;100.00;97384.34;1709197;82;21177;-76
2020/12/05 07:00:25;;;;;;;29.70;17.75;;;;;;;5.79;100.00;97384.98;1709337;84;21129;-76
2020/12/05 07:03:01;;;;;;;32.35;17.65;;;;;;;5.76;100.00;97376.98;1709276;83;21507;-75
2020/12/05 07:05:40;;;;;;;31.30;19.32;;;;;;;5.73;100.00;97374.61;1710073;84;21082;-75
2020/12/05 07:08:26;;;;;;;35.98;20.65;;;;;;;5.73;100.00;97379.77;1717934;82;21097;-76
2020/12/05 07:11:07;;;;;;;36.48;20.02;;;;;;;5.72;100.00;97380.70;1720413;83;21149;-76
2020/12/05 07:13:40;;;;;;;34.55;19.42;;;;;;;5.70;100.00;97378.66;1727606;83;21165;-76
2020/12/05 07:16:24;;;;;;;27.15;17.07;;;;;;;5.68;100.00;97387.42;1730911;82;21208;-75
2020/12/05 07:18:59;;;;;;;37.67;19.10;;;;;;;5.64;100.00;97387.63;1730546;83;21094;-76
2020/12/05 07:21:29;;;;;;;30.85;18.17;;;;;;;5.66;100.00;97390.57;1731584;83;20943;-76
2020/12/05 07:23:56;;;;;;;32.55;19.32;;;;;;;5.64;100.00;97389.38;1731617;83;20985;-76
2020/12/05 07:26:23;;;;;;;36.05;19.85;;;;;;;5.63;100.00;97393.72;1731638;82;21007;-76
2020/12/05 07:28:53;;;;;;;33.33;18.60;;;;;;;5.63;100.00;97391.13;1730909;83;21149;-77
2020/12/05 07:31:21;;;;;;;30.57;18.77;;;;;;;5.63;100.00;97392.89;1731501;83;21141;-76
2020/12/05 07:33:48;;;;;;;32.65;18.50;;;;;;;5.63;100.00;97382.10;1731688;83;21071;-76
2020/12/05 07:36:15;;;;;;;27.17;16.70;;;;;;;5.64;100.00;97394.08;1731645;82;21015;-76
2020/12/05 07:38:45;;;;;;;31.82;17.48;;;;;;;5.64;100.00;97397.95;1731653;82;20939;-76
2020/12/05 07:41:18;;;;;;;31.70;16.35;;;;;;;5.61;100.00;97398.12;1729014;83;21495;-76
2020/12/05 07:43:45;;;;;;;30.75;18.42;;;;;;;5.60;100.00;97389.19;1711049;82;21169;-76
2020/12/05 07:46:14;;;;;;;31.85;17.82;;;;;;;5.59;100.00;97400.44;1701872;84;21200;-77
2020/12/05 07:57:29;;;;;;;30.20;17.57;;;;;;;5.61;100.00;97394.71;1555941;90;21149;-81
2020/12/05 08:00:12;;;;;;;34.23;21.40;;;;;;;5.64;100.00;97398.41;1852666;77;23144;-77
2020/12/05 08:03:11;;;;;;;36.53;24.80;;;;;;;5.58;100.00;97402.66;1824680;78;21006;-76
2020/12/05 08:05:57;;;;;;;33.65;21.35;;;;;;;5.57;100.00;97411.31;1811843;77;22029;-75
2020/12/05 08:08:28;;;;;;;29.40;19.42;;;;;;;5.57;100.00;97412.14;1817849;77;21344;-76
2020/12/05 08:11:01;;;;;;;31.93;20.92;;;;;;;5.58;100.00;97420.71;1823446;77;21536;-76
2020/12/05 08:13:30;;;;;;;30.52;19.07;;;;;;;5.57;100.00;97431.95;1858260;77;21029;-76
2020/12/05 08:16:02;;;;;;;34.98;20.02;;;;;;;5.58;100.00;97424.12;1855280;77;22199;-77
2020/12/05 08:18:30;;;;;;;41.70;26.77;;;;;;;5.61;100.00;97445.02;1848437;77;21370;-77
2020/12/05 08:20:57;;;;;;;34.95;21.52;;;;;;;5.63;100.00;97437.58;1858009;77;21010;-76
2020/12/05 08:23:28;;;;;;;38.30;25.50;;;;;;;5.62;100.00;97429.44;1858971;77;20920;-77
2020/12/05 08:26:09;;;;;;;42.58;26.35;;;;;;;5.65;100.00;97443.92;1854002;77;21250;-77
2020/12/05 08:28:40;;;;;;;45.85;31.52;;;;;;;5.67;100.00;97434.33;1825401;77;21566;-76
2020/12/05 08:31:11;;;;;;;35.17;22.37;;;;;;;5.69;100.00;97438.92;1859064;76;21649;-76
2020/12/05 08:33:45;;;;;;;35.58;19.60;;;;;;;5.70;100.00;97445.73;1858531;77;21026;-77
2020/12/05 08:36:26;;;;;;;35.13;19.35;;;;;;;5.70;100.00;97452.66;1845983;77;21144;-77
2020/12/05 08:38:56;;;;;;;31.77;20.10;;;;;;;5.70;100.00;97450.08;1848670;77;20989;-76
2020/12/05 08:41:24;;;;;;;34.78;18.00;;;;;;;5.71;100.00;97443.55;1858177;77;20893;-78
2020/12/05 08:43:51;;;;;;;32.17;18.75;;;;;;;5.72;100.00;97446.50;1844115;76;21190;-78
2020/12/05 08:46:20;;;;;;;34.27;19.75;;;;;;;5.74;100.00;97451.55;1824276;78;21483;-78
2020/12/05 08:48:49;;;;;;;32.08;18.87;;;;;;;5.73;100.00;97445.57;1811963;77;21351;-78
2020/12/05 08:51:27;;;;;;;33.83;18.90;;;;;;;5.74;100.00;97449.80;1802352;79;21032;-77
2020/12/05 08:54:05;;;;;;;32.70;18.23;;;;;;;5.74;100.00;97445.11;1802510;79;21331;-76
2020/12/05 08:56:34;;;;;;;31.15;16.97;;;;;;;5.75;100.00;97451.45;1802399;79;21325;-75
2020/12/05 08:59:01;;;;;;;32.00;18.30;;;;;;;5.76;100.00;97454.40;1803713;78;21442;-75
2020/12/05 09:01:38;;;;;;;29.80;18.23;;;;;;;5.78;100.00;97449.14;1805502;79;20937;-74
2020/12/05 09:04:06;;;;;;;32.90;18.30;;;;;;;5.80;100.00;97455.88;1805573;79;21043;-74
2020/12/05 09:06:33;;;;;;;39.50;18.30;;;;;;;5.82;100.00;97447.58;1805508;78;20925;-74
2020/12/05 09:09:00;;;;;;;29.57;17.52;;;;;;;5.85;100.00;97451.25;1805472;79;21191;-77
2020/12/05 09:11:27;;;;;;;29.45;17.77;;;;;;;5.88;100.00;97455.41;1810241;78;20986;-76
2020/12/05 09:13:54;;;;;;;26.97;15.53;;;;;;;5.90;100.00;97445.38;1828940;76;20915;-77
2020/12/05 09:16:33;;;;;;;30.25;17.82;;;;;;;5.94;100.00;97438.72;1816161;78;20880;-77
2020/12/05 09:19:00;;;;;;;34.23;17.82;;;;;;;5.99;100.00;97444.44;1825147;78;20977;-76
2020/12/05 09:21:35;;;;;;;30.48;18.32;;;;;;;6.01;100.00;97434.83;1796070;80;21189;-77
2020/12/05 09:24:04;;;;;;;34.27;19.15;;;;;;;6.05;100.00;97438.89;1823487;78;20927;-77
2020/12/05 09:26:32;;;;;;;32.33;17.48;;;;;;;6.05;100.00;97442.77;1824697;78;20919;-76
2020/12/05 09:29:00;;;;;;;32.48;16.97;;;;;;;6.06;100.00;97436.21;1837318;77;21042;-77
2020/12/05 09:31:33;;;;;;;31.17;16.15;;;;;;;6.05;100.00;97450.05;1824921;78;21377;-75
2020/12/05 09:34:00;;;;;;;27.90;16.07;;;;;;;6.06;100.00;97441.84;1824467;78;22029;-74
2020/12/05 09:36:28;;;;;;;28.15;15.93;;;;;;;6.06;100.00;97441.38;1826633;77;21245;-74
2020/12/05 09:38:55;;;;;;;31.57;18.35;;;;;;;6.08;100.00;97439.98;1823918;78;21041;-74
2020/12/05 09:41:22;;;;;;;26.57;16.35;;;;;;;6.09;100.00;97445.50;1829514;76;20919;-74
2020/12/05 09:43:50;;;;;;;28.83;16.67;;;;;;;6.09;100.00;97443.75;1838043;76;21010;-75
2020/12/05 09:46:17;;;;;;;28.25;16.35;;;;;;;6.10;100.00;97444.11;1826386;77;21417;-75
2020/12/05 09:48:44;;;;;;;29.05;16.48;;;;;;;6.13;100.00;97451.69;1839209;77;21129;-75
2020/12/05 09:51:12;;;;;;;28.60;16.30;;;;;;;6.16;99.99;97441.61;1829594;77;20924;-75
2020/12/05 09:53:39;;;;;;;30.88;17.75;;;;;;;6.18;99.75;97448.80;1839817;77;21104;-75
2020/12/05 09:56:06;;;;;;;30.62;16.45;;;;;;;6.21;99.61;97438.29;1824705;78;21431;-75
2020/12/05 09:58:33;;;;;;;35.28;18.27;;;;;;;6.23;99.23;97448.05;1831668;77;22260;-74
2020/12/05 10:01:00;;;;;;;34.25;19.23;;;;;;;6.23;99.08;97447.22;1830615;77;21081;-75
2020/12/05 10:03:28;;;;;;;29.80;18.82;;;;;;;6.19;99.02;97447.86;1851410;77;20963;-75
2020/12/05 10:05:55;;;;;;;30.68;18.20;;;;;;;6.18;99.09;97444.92;1842130;77;21412;-75
2020/12/05 10:08:22;;;;;;;28.80;16.82;;;;;;;6.19;99.16;97449.98;1827817;77;21301;-75
2020/12/05 10:10:50;;;;;;;30.80;17.05;;;;;;;6.22;99.09;97454.14;1851806;77;21329;-75
2020/12/05 10:13:17;;;;;;;30.00;17.27;;;;;;;6.21;99.00;97452.49;1849157;77;21141;-75
2020/12/05 10:15:44;;;;;;;28.42;16.93;;;;;;;6.23;98.90;97467.42;1850518;76;20880;-76
2020/12/05 10:18:11;;;;;;;27.67;16.35;;;;;;;6.24;98.85;97465.66;1857580;77;21029;-75
2020/12/05 10:20:38;;;;;;;28.70;16.93;;;;;;;6.25;98.70;97465.56;1812100;78;20999;-75
2020/12/05 10:23:07;;;;;;;30.25;15.85;;;;;;;6.27;98.64;97462.87;1836076;76;21457;-75
2020/12/05 10:25:34;;;;;;;26.82;15.72;;;;;;;6.30;98.40;97463.52;1845720;77;20922;-75
2020/12/05 10:28:01;;;;;;;30.92;17.35;;;;;;;6.32;98.30;97457.79;1858623;77;20899;-75
2020/12/05 10:30:28;;;;;;;27.95;16.10;;;;;;;6.31;97.98;97450.97;1830338;77;21062;-75
2020/12/05 10:32:56;;;;;;;26.95;15.43;;;;;;;6.32;97.78;97465.54;1843298;76;20919;-74
2020/12/05 10:35:25;;;;;;;25.57;14.78;;;;;;;6.30;97.69;97464.81;1835043;76;21142;-74
2020/12/05 10:37:53;;;;;;;29.72;16.57;;;;;;;6.30;97.71;97471.27;1829886;77;21018;-75
2020/12/05 10:40:20;;;;;;;24.27;15.00;;;;;;;6.31;97.69;97465.17;1823470;78;21502;-76
2020/12/05 10:42:47;;;;;;;26.30;16.97;;;;;;;6.32;97.64;97468.13;1832284;77;21145;-75
2020/12/05 10:45:15;;;;;;;28.65;15.13;;;;;;;6.31;97.53;97466.47;1855011;76;21559;-75
2020/12/05 10:47:43;;;;;;;31.33;17.15;;;;;;;6.27;97.38;97463.70;1854300;76;21354;-75
2020/12/05 10:50:10;;;;;;;26.85;14.70;;;;;;;6.27;97.46;97469.33;1857365;77;21109;-75
2020/12/05 10:52:38;;;;;;;29.02;16.20;;;;;;;6.27;97.63;97470.63;1857303;77;20991;-75
2020/12/05 10:55:05;;;;;;;29.72;16.85;;;;;;;6.27;97.44;97467.58;1849548;77;21129;-75
2020/12/05 10:57:33;;;;;;;24.72;14.60;;;;;;;6.26;97.37;97473.67;1848032;76;22033;-74
2020/12/05 11:00:05;;;;;;;28.05;15.00;;;;;;;6.28;97.22;97483.43;1832381;77;21162;-73
2020/12/05 11:02:32;;;;;;;24.77;14.50;;;;;;;6.28;97.14;97472.27;1836517;76;21540;-73
2020/12/05 11:04:59;;;;;;;25.90;14.40;;;;;;;6.26;97.18;97481.41;1858268;77;21384;-76
2020/12/05 11:07:26;;;;;;;26.62;14.87;;;;;;;6.30;97.17;97480.31;1858756;77;20967;-75
2020/12/05 11:09:54;;;;;;;25.65;15.65;;;;;;;6.32;97.11;97487.48;1848322;76;20914;-75
2020/12/05 11:12:21;;;;;;;26.42;15.32;;;;;;;6.32;96.72;97490.08;1842099;76;21354;-75
2020/12/05 11:14:49;;;;;;;25.17;13.88;;;;;;;6.32;96.60;97497.83;1845005;77;21391;-76
2020/12/05 11:17:16;;;;;;;25.05;14.25;;;;;;;6.33;96.49;97485.73;1825269;78;20940;-73
2020/12/05 11:19:43;;;;;;;23.45;13.75;;;;;;;6.31;96.44;97485.84;1827353;76;21250;-74
2020/12/05 11:22:11;;;;;;;23.12;14.35;;;;;;;6.30;96.53;97486.77;1841148;77;21073;-75
2020/12/05 11:24:45;;;;;;;25.72;15.98;;;;;;;6.30;96.49;97494.98;1842256;76;22072;-76
2020/12/05 11:27:12;;;;;;;27.58;15.32;;;;;;;6.30;96.17;97494.52;1838815;76;20935;-75
2020/12/05 11:29:40;;;;;;;30.75;15.83;;;;;;;6.29;96.27;97494.59;1842633;77;21002;-76
2020/12/05 11:32:07;;;;;;;29.65;16.62;;;;;;;6.24;96.09;97487.15;1843382;77;21435;-75
2020/12/05 11:34:34;;;;;;;28.27;16.37;;;;;;;6.24;96.17;97485.03;1844465;77;21060;-75
2020/12/05 11:37:02;;;;;;;30.23;16.90;;;;;;;6.22;96.07;97490.30;1825045;78;21183;-77
2020/12/05 11:39:30;;;;;;;27.95;17.17;;;;;;;6.22;96.29;97485.13;1831784;76;21173;-75
2020/12/05 11:41:57;;;;;;;24.67;14.30;;;;;;;6.21;96.21;97482.19;1858624;77;21007;-75
2020/12/05 11:44:24;;;;;;;24.82;14.87;;;;;;;6.20;96.20;97481.33;1850391;76;21026;-75